sensor_id;sensor_type;location;lat;lon;timestamp;temperature;humidity
11264;DHT22;5689;48.798;9.070;2023-12-22T00:00:36;6.90;99.90
11264;DHT22;5689;48.798;9.070;2023-12-22T00:03:04;6.90;99.90
11264;DHT22;5689;48.798;9.070;2023-12-22T00:05:32;7.00;99.90
11264;DHT22;5689;48.798;9.070;2023-12-22T00:08:00;7.10;99.90
11264;DHT22;5689;48.798;9.070;2023-12-22T00:10:28;7.30;99.90
11264;DHT22;5689;48.798;9.070;2023-12-22T00:12:57;7.40;99.90
11264;DHT22;5689;48.798;9.070;2023-12-22T00:15:25;7.50;99.90
11264;DHT22;5689;48.798;9.070;2023-12-22T00:17:54;7.50;99.90
11264;DHT22;5689;48.798;9.070;2023-12-22T00:20:22;7.50;99.90
11264;DHT22;5689;48.798;9.070;2023-12-22T00:22:50;7.50;99.90
11264;DHT22;5689;48.798;9.070;2023-12-22T00:25:18;7.50;99.90
11264;DHT22;5689;48.798;9.070;2023-12-22T00:27:46;7.50;99.90
11264;DHT22;5689;48.798;9.070;2023-12-22T00:30:16;7.50;99.90
11264;DHT22;5689;48.798;9.070;2023-12-22T00:32:44;7.50;99.90
11264;DHT22;5689;48.798;9.070;2023-12-22T00:35:12;7.50;99.90
11264;DHT22;5689;48.798;9.070;2023-12-22T00:37:40;7.50;99.90
11264;DHT22;5689;48.798;9.070;2023-12-22T00:40:09;7.50;99.90
11264;DHT22;5689;48.798;9.070;2023-12-22T00:42:37;7.40;99.90
11264;DHT22;5689;48.798;9.070;2023-12-22T00:45:06;7.30;99.90
11264;DHT22;5689;48.798;9.070;2023-12-22T00:47:35;7.10;99.90
11264;DHT22;5689;48.798;9.070;2023-12-22T00:50:04;7.00;99.90
11264;DHT22;5689;48.798;9.070;2023-12-22T00:52:33;6.90;99.90
11264;DHT22;5689;48.798;9.070;2023-12-22T00:55:01;6.90;99.90
11264;DHT22;5689;48.798;9.070;2023-12-22T00:57:29;6.80;99.90
11264;DHT22;5689;48.798;9.070;2023-12-22T00:59:58;6.90;99.90
11264;DHT22;5689;48.798;9.070;2023-12-22T01:02:26;6.90;99.90
11264;DHT22;5689;48.798;9.070;2023-12-22T01:04:55;6.90;99.90
11264;DHT22;5689;48.798;9.070;2023-12-22T01:07:23;7.00;99.90
11264;DHT22;5689;48.798;9.070;2023-12-22T01:09:52;7.10;99.90
11264;DHT22;5689;48.798;9.070;2023-12-22T01:12:20;7.20;99.90
11264;DHT22;5689;48.798;9.070;2023-12-22T01:14:48;7.10;99.90
11264;DHT22;5689;48.798;9.070;2023-12-22T01:17:18;7.10;99.90
11264;DHT22;5689;48.798;9.070;2023-12-22T01:19:46;7.10;99.90
11264;DHT22;5689;48.798;9.070;2023-12-22T01:22:15;7.10;99.90
11264;DHT22;5689;48.798;9.070;2023-12-22T01:24:43;7.10;99.90
11264;DHT22;5689;48.798;9.070;2023-12-22T01:27:12;7.10;99.90
11264;DHT22;5689;48.798;9.070;2023-12-22T01:29:40;7.10;99.90
11264;DHT22;5689;48.798;9.070;2023-12-22T01:32:08;7.10;99.90
11264;DHT22;5689;48.798;9.070;2023-12-22T01:34:36;7.10;99.90
11264;DHT22;5689;48.798;9.070;2023-12-22T01:37:04;7.10;99.90
11264;DHT22;5689;48.798;9.070;2023-12-22T01:39:33;7.10;99.90
11264;DHT22;5689;48.798;9.070;2023-12-22T01:42:01;7.20;99.90
11264;DHT22;5689;48.798;9.070;2023-12-22T01:44:29;7.20;99.90
11264;DHT22;5689;48.798;9.070;2023-12-22T01:46:58;7.20;99.90
11264;DHT22;5689;48.798;9.070;2023-12-22T01:49:27;7.30;99.90
11264;DHT22;5689;48.798;9.070;2023-12-22T01:51:56;7.30;99.90
11264;DHT22;5689;48.798;9.070;2023-12-22T01:54:25;7.30;99.90
11264;DHT22;5689;48.798;9.070;2023-12-22T01:56:55;7.30;99.90
11264;DHT22;5689;48.798;9.070;2023-12-22T01:59:23;7.30;99.90
11264;DHT22;5689;48.798;9.070;2023-12-22T02:01:52;7.20;99.90
11264;DHT22;5689;48.798;9.070;2023-12-22T02:04:21;7.20;99.90
11264;DHT22;5689;48.798;9.070;2023-12-22T02:06:49;7.20;99.90
11264;DHT22;5689;48.798;9.070;2023-12-22T02:09:17;7.30;99.90
11264;DHT22;5689;48.798;9.070;2023-12-22T02:11:45;7.20;99.90
11264;DHT22;5689;48.798;9.070;2023-12-22T02:14:15;7.20;99.90
11264;DHT22;5689;48.798;9.070;2023-12-22T02:16:46;7.20;99.90
11264;DHT22;5689;48.798;9.070;2023-12-22T02:19:22;7.10;99.90
11264;DHT22;5689;48.798;9.070;2023-12-22T02:22:05;7.10;99.90
11264;DHT22;5689;48.798;9.070;2023-12-22T02:24:35;7.10;99.90
11264;DHT22;5689;48.798;9.070;2023-12-22T02:27:05;7.20;99.90
11264;DHT22;5689;48.798;9.070;2023-12-22T02:29:37;7.30;99.90
11264;DHT22;5689;48.798;9.070;2023-12-22T02:32:14;7.20;99.90
11264;DHT22;5689;48.798;9.070;2023-12-22T02:34:47;7.30;99.90
11264;DHT22;5689;48.798;9.070;2023-12-22T02:37:17;7.20;99.90
11264;DHT22;5689;48.798;9.070;2023-12-22T02:39:47;7.30;99.90
11264;DHT22;5689;48.798;9.070;2023-12-22T02:42:15;7.30;99.90
11264;DHT22;5689;48.798;9.070;2023-12-22T02:44:45;7.40;99.90
11264;DHT22;5689;48.798;9.070;2023-12-22T02:47:13;7.30;99.90
11264;DHT22;5689;48.798;9.070;2023-12-22T02:49:41;7.40;99.90
11264;DHT22;5689;48.798;9.070;2023-12-22T02:52:09;7.50;99.90
11264;DHT22;5689;48.798;9.070;2023-12-22T02:54:37;7.50;99.90
11264;DHT22;5689;48.798;9.070;2023-12-22T02:57:08;7.40;99.90
11264;DHT22;5689;48.798;9.070;2023-12-22T02:59:37;7.40;99.90
11264;DHT22;5689;48.798;9.070;2023-12-22T03:02:05;7.40;99.90
11264;DHT22;5689;48.798;9.070;2023-12-22T03:04:33;7.60;99.90
11264;DHT22;5689;48.798;9.070;2023-12-22T03:07:01;7.50;99.90
11264;DHT22;5689;48.798;9.070;2023-12-22T03:09:29;7.60;99.90
11264;DHT22;5689;48.798;9.070;2023-12-22T03:12:00;7.50;99.90
11264;DHT22;5689;48.798;9.070;2023-12-22T03:14:30;7.60;99.90
11264;DHT22;5689;48.798;9.070;2023-12-22T03:17:00;7.70;99.90
11264;DHT22;5689;48.798;9.070;2023-12-22T03:19:28;7.60;99.90
11264;DHT22;5689;48.798;9.070;2023-12-22T03:21:56;7.60;99.90
11264;DHT22;5689;48.798;9.070;2023-12-22T03:24:25;7.60;99.90
11264;DHT22;5689;48.798;9.070;2023-12-22T03:26:55;7.60;99.90
11264;DHT22;5689;48.798;9.070;2023-12-22T03:29:23;7.60;99.90
11264;DHT22;5689;48.798;9.070;2023-12-22T03:31:53;7.60;99.90
11264;DHT22;5689;48.798;9.070;2023-12-22T03:34:21;7.60;99.90
11264;DHT22;5689;48.798;9.070;2023-12-22T03:36:49;7.60;99.90
11264;DHT22;5689;48.798;9.070;2023-12-22T03:39:17;7.60;99.90
11264;DHT22;5689;48.798;9.070;2023-12-22T03:41:45;7.60;99.90
11264;DHT22;5689;48.798;9.070;2023-12-22T03:44:13;7.60;99.90
11264;DHT22;5689;48.798;9.070;2023-12-22T03:46:41;7.60;99.90
11264;DHT22;5689;48.798;9.070;2023-12-22T03:49:11;7.60;99.90
11264;DHT22;5689;48.798;9.070;2023-12-22T03:51:39;7.60;99.90
11264;DHT22;5689;48.798;9.070;2023-12-22T03:54:08;7.50;99.90
11264;DHT22;5689;48.798;9.070;2023-12-22T03:56:37;7.20;99.90
11264;DHT22;5689;48.798;9.070;2023-12-22T03:59:05;6.90;99.90
11264;DHT22;5689;48.798;9.070;2023-12-22T04:01:33;6.80;99.90
11264;DHT22;5689;48.798;9.070;2023-12-22T04:04:01;6.60;99.90
11264;DHT22;5689;48.798;9.070;2023-12-22T04:06:31;6.70;99.90
11264;DHT22;5689;48.798;9.070;2023-12-22T04:08:59;6.70;99.90
11264;DHT22;5689;48.798;9.070;2023-12-22T04:11:27;6.70;99.90
11264;DHT22;5689;48.798;9.070;2023-12-22T04:13:55;6.70;99.90
11264;DHT22;5689;48.798;9.070;2023-12-22T04:16:23;6.60;99.90
11264;DHT22;5689;48.798;9.070;2023-12-22T04:18:52;6.60;99.90
11264;DHT22;5689;48.798;9.070;2023-12-22T04:21:20;6.50;99.90
11264;DHT22;5689;48.798;9.070;2023-12-22T04:23:50;6.50;99.90
11264;DHT22;5689;48.798;9.070;2023-12-22T04:26:18;6.50;99.90
11264;DHT22;5689;48.798;9.070;2023-12-22T04:28:46;6.50;99.90
11264;DHT22;5689;48.798;9.070;2023-12-22T04:31:14;6.60;99.90
11264;DHT22;5689;48.798;9.070;2023-12-22T04:33:42;6.60;99.90
11264;DHT22;5689;48.798;9.070;2023-12-22T04:36:10;6.60;99.90
11264;DHT22;5689;48.798;9.070;2023-12-22T04:38:39;6.70;99.90
11264;DHT22;5689;48.798;9.070;2023-12-22T04:41:09;6.80;99.90
11264;DHT22;5689;48.798;9.070;2023-12-22T04:43:37;6.80;99.90
11264;DHT22;5689;48.798;9.070;2023-12-22T04:46:05;6.80;99.90
11264;DHT22;5689;48.798;9.070;2023-12-22T04:48:33;6.90;99.90
11264;DHT22;5689;48.798;9.070;2023-12-22T04:51:02;6.90;99.90
11264;DHT22;5689;48.798;9.070;2023-12-22T04:53:30;6.90;99.90
11264;DHT22;5689;48.798;9.070;2023-12-22T04:55:58;7.00;99.90
11264;DHT22;5689;48.798;9.070;2023-12-22T04:58:28;7.10;99.90
11264;DHT22;5689;48.798;9.070;2023-12-22T05:00:56;7.00;99.90
11264;DHT22;5689;48.798;9.070;2023-12-22T05:03:24;7.00;99.90
11264;DHT22;5689;48.798;9.070;2023-12-22T05:05:52;7.10;99.90
11264;DHT22;5689;48.798;9.070;2023-12-22T05:08:20;7.30;99.90
11264;DHT22;5689;48.798;9.070;2023-12-22T05:10:48;7.30;99.90
11264;DHT22;5689;48.798;9.070;2023-12-22T05:13:17;7.30;99.90
11264;DHT22;5689;48.798;9.070;2023-12-22T05:15:46;7.30;99.90
11264;DHT22;5689;48.798;9.070;2023-12-22T05:18:14;7.20;99.90
11264;DHT22;5689;48.798;9.070;2023-12-22T05:20:43;7.20;99.90
11264;DHT22;5689;48.798;9.070;2023-12-22T05:23:12;7.30;99.90
11264;DHT22;5689;48.798;9.070;2023-12-22T05:25:40;7.30;99.90
11264;DHT22;5689;48.798;9.070;2023-12-22T05:28:08;7.30;99.90
11264;DHT22;5689;48.798;9.070;2023-12-22T05:30:36;7.30;99.90
11264;DHT22;5689;48.798;9.070;2023-12-22T05:33:06;7.20;99.90
11264;DHT22;5689;48.798;9.070;2023-12-22T05:35:34;7.10;99.90
11264;DHT22;5689;48.798;9.070;2023-12-22T05:38:03;7.00;99.90
11264;DHT22;5689;48.798;9.070;2023-12-22T05:40:32;6.90;99.90
11264;DHT22;5689;48.798;9.070;2023-12-22T05:43:01;6.90;99.90
11264;DHT22;5689;48.798;9.070;2023-12-22T05:45:29;7.00;99.90
11264;DHT22;5689;48.798;9.070;2023-12-22T05:47:57;7.00;99.90
11264;DHT22;5689;48.798;9.070;2023-12-22T05:50:26;7.10;99.90
11264;DHT22;5689;48.798;9.070;2023-12-22T05:52:54;7.20;99.90
11264;DHT22;5689;48.798;9.070;2023-12-22T05:55:23;7.40;99.90
11264;DHT22;5689;48.798;9.070;2023-12-22T05:57:51;7.50;99.90
11264;DHT22;5689;48.798;9.070;2023-12-22T06:00:20;7.50;99.90
11264;DHT22;5689;48.798;9.070;2023-12-22T06:02:49;7.50;99.90
11264;DHT22;5689;48.798;9.070;2023-12-22T06:05:17;7.60;99.90
11264;DHT22;5689;48.798;9.070;2023-12-22T06:07:47;7.60;99.90
11264;DHT22;5689;48.798;9.070;2023-12-22T06:10:15;7.60;99.90
11264;DHT22;5689;48.798;9.070;2023-12-22T06:12:44;7.70;99.90
11264;DHT22;5689;48.798;9.070;2023-12-22T06:15:13;7.70;99.90
11264;DHT22;5689;48.798;9.070;2023-12-22T06:17:41;7.60;99.90
11264;DHT22;5689;48.798;9.070;2023-12-22T06:20:10;7.60;99.90
11264;DHT22;5689;48.798;9.070;2023-12-22T06:22:38;7.60;99.90
11264;DHT22;5689;48.798;9.070;2023-12-22T06:25:08;7.60;99.90
11264;DHT22;5689;48.798;9.070;2023-12-22T06:27:36;7.60;99.90
11264;DHT22;5689;48.798;9.070;2023-12-22T06:30:06;7.60;99.90
11264;DHT22;5689;48.798;9.070;2023-12-22T06:32:34;7.60;99.90
11264;DHT22;5689;48.798;9.070;2023-12-22T06:35:07;7.60;99.90
11264;DHT22;5689;48.798;9.070;2023-12-22T06:37:37;7.60;99.90
11264;DHT22;5689;48.798;9.070;2023-12-22T06:40:08;7.60;99.90
11264;DHT22;5689;48.798;9.070;2023-12-22T06:42:36;7.70;99.90
11264;DHT22;5689;48.798;9.070;2023-12-22T06:45:06;7.70;99.90
11264;DHT22;5689;48.798;9.070;2023-12-22T06:47:34;7.80;99.90
11264;DHT22;5689;48.798;9.070;2023-12-22T06:50:02;7.80;99.90
11264;DHT22;5689;48.798;9.070;2023-12-22T06:52:31;7.70;99.90
11264;DHT22;5689;48.798;9.070;2023-12-22T06:54:59;7.80;99.90
11264;DHT22;5689;48.798;9.070;2023-12-22T06:57:29;7.70;99.90
11264;DHT22;5689;48.798;9.070;2023-12-22T06:59:58;7.70;99.90
11264;DHT22;5689;48.798;9.070;2023-12-22T07:02:26;7.60;99.90
11264;DHT22;5689;48.798;9.070;2023-12-22T07:05:34;7.60;99.90
11264;DHT22;5689;48.798;9.070;2023-12-22T07:08:05;7.60;99.90
11264;DHT22;5689;48.798;9.070;2023-12-22T07:10:34;7.60;99.90
11264;DHT22;5689;48.798;9.070;2023-12-22T07:13:03;7.50;99.90
11264;DHT22;5689;48.798;9.070;2023-12-22T07:15:32;7.60;99.90
11264;DHT22;5689;48.798;9.070;2023-12-22T07:18:00;7.60;99.90
11264;DHT22;5689;48.798;9.070;2023-12-22T07:20:28;7.50;99.90
11264;DHT22;5689;48.798;9.070;2023-12-22T07:22:56;7.50;99.90
11264;DHT22;5689;48.798;9.070;2023-12-22T07:25:25;7.50;99.90
11264;DHT22;5689;48.798;9.070;2023-12-22T07:27:53;7.50;99.90
11264;DHT22;5689;48.798;9.070;2023-12-22T07:30:22;7.40;99.90
11264;DHT22;5689;48.798;9.070;2023-12-22T07:32:51;7.50;99.90
11264;DHT22;5689;48.798;9.070;2023-12-22T07:35:20;7.50;99.90
11264;DHT22;5689;48.798;9.070;2023-12-22T07:37:49;7.60;99.90
11264;DHT22;5689;48.798;9.070;2023-12-22T07:40:17;7.50;99.90
11264;DHT22;5689;48.798;9.070;2023-12-22T07:42:46;7.60;99.90
11264;DHT22;5689;48.798;9.070;2023-12-22T07:45:15;7.50;99.90
11264;DHT22;5689;48.798;9.070;2023-12-22T07:47:44;7.60;99.90
11264;DHT22;5689;48.798;9.070;2023-12-22T07:50:13;7.50;99.90
11264;DHT22;5689;48.798;9.070;2023-12-22T07:52:41;7.50;99.90
11264;DHT22;5689;48.798;9.070;2023-12-22T07:55:10;7.50;99.90
11264;DHT22;5689;48.798;9.070;2023-12-22T07:57:38;7.50;99.90
11264;DHT22;5689;48.798;9.070;2023-12-22T08:00:08;7.20;99.90
11264;DHT22;5689;48.798;9.070;2023-12-22T08:02:38;7.10;99.90
11264;DHT22;5689;48.798;9.070;2023-12-22T08:05:08;7.00;99.90
11264;DHT22;5689;48.798;9.070;2023-12-22T08:07:36;6.90;99.90
11264;DHT22;5689;48.798;9.070;2023-12-22T08:10:05;6.90;99.90
11264;DHT22;5689;48.798;9.070;2023-12-22T08:12:34;6.90;99.90
11264;DHT22;5689;48.798;9.070;2023-12-22T08:15:02;6.80;99.90
11264;DHT22;5689;48.798;9.070;2023-12-22T08:17:31;6.70;99.90
11264;DHT22;5689;48.798;9.070;2023-12-22T08:20:00;6.70;99.90
11264;DHT22;5689;48.798;9.070;2023-12-22T08:22:30;6.60;99.90
11264;DHT22;5689;48.798;9.070;2023-12-22T08:24:59;6.60;99.90
11264;DHT22;5689;48.798;9.070;2023-12-22T08:27:27;6.60;99.90
11264;DHT22;5689;48.798;9.070;2023-12-22T08:29:56;6.60;99.90
11264;DHT22;5689;48.798;9.070;2023-12-22T08:32:24;6.70;99.90
11264;DHT22;5689;48.798;9.070;2023-12-22T08:34:52;6.80;99.90
11264;DHT22;5689;48.798;9.070;2023-12-22T08:37:20;6.90;99.90
11264;DHT22;5689;48.798;9.070;2023-12-22T08:39:50;7.00;99.90
11264;DHT22;5689;48.798;9.070;2023-12-22T08:42:19;6.90;99.90
11264;DHT22;5689;48.798;9.070;2023-12-22T08:44:49;6.90;99.90
11264;DHT22;5689;48.798;9.070;2023-12-22T08:47:18;7.00;99.90
11264;DHT22;5689;48.798;9.070;2023-12-22T08:49:46;7.00;99.90
11264;DHT22;5689;48.798;9.070;2023-12-22T08:52:14;7.10;99.90
11264;DHT22;5689;48.798;9.070;2023-12-22T08:54:42;7.10;99.90
11264;DHT22;5689;48.798;9.070;2023-12-22T08:57:13;7.20;99.90
11264;DHT22;5689;48.798;9.070;2023-12-22T08:59:41;7.20;99.90
11264;DHT22;5689;48.798;9.070;2023-12-22T09:02:09;7.20;99.90
11264;DHT22;5689;48.798;9.070;2023-12-22T09:04:38;7.30;99.90
11264;DHT22;5689;48.798;9.070;2023-12-22T09:07:06;7.30;99.90
11264;DHT22;5689;48.798;9.070;2023-12-22T09:09:35;7.30;99.90
11264;DHT22;5689;48.798;9.070;2023-12-22T09:12:03;7.40;99.90
11264;DHT22;5689;48.798;9.070;2023-12-22T09:14:33;7.50;99.90
11264;DHT22;5689;48.798;9.070;2023-12-22T09:17:02;7.60;99.90
11264;DHT22;5689;48.798;9.070;2023-12-22T09:19:32;7.60;99.90
11264;DHT22;5689;48.798;9.070;2023-12-22T09:22:01;7.70;99.90
11264;DHT22;5689;48.798;9.070;2023-12-22T09:24:29;7.70;99.90
11264;DHT22;5689;48.798;9.070;2023-12-22T09:26:58;7.80;99.90
11264;DHT22;5689;48.798;9.070;2023-12-22T09:29:29;7.80;99.90
11264;DHT22;5689;48.798;9.070;2023-12-22T09:31:59;7.80;99.90
11264;DHT22;5689;48.798;9.070;2023-12-22T09:34:28;7.90;99.90
11264;DHT22;5689;48.798;9.070;2023-12-22T09:36:56;8.00;99.90
11264;DHT22;5689;48.798;9.070;2023-12-22T09:39:24;8.00;99.90
11264;DHT22;5689;48.798;9.070;2023-12-22T09:41:55;8.00;99.90
11264;DHT22;5689;48.798;9.070;2023-12-22T09:44:24;8.00;99.90
11264;DHT22;5689;48.798;9.070;2023-12-22T09:46:57;8.00;99.90
11264;DHT22;5689;48.798;9.070;2023-12-22T09:49:28;8.10;99.90
11264;DHT22;5689;48.798;9.070;2023-12-22T09:51:57;8.10;99.90
11264;DHT22;5689;48.798;9.070;2023-12-22T09:54:25;8.10;99.90
11264;DHT22;5689;48.798;9.070;2023-12-22T09:56:54;8.10;99.90
11264;DHT22;5689;48.798;9.070;2023-12-22T09:59:25;8.20;99.90
11264;DHT22;5689;48.798;9.070;2023-12-22T10:01:55;8.20;99.90
11264;DHT22;5689;48.798;9.070;2023-12-22T10:04:23;8.20;99.90
11264;DHT22;5689;48.798;9.070;2023-12-22T10:06:53;8.10;99.90
11264;DHT22;5689;48.798;9.070;2023-12-22T10:09:27;8.10;99.90
11264;DHT22;5689;48.798;9.070;2023-12-22T10:11:56;8.20;99.90
11264;DHT22;5689;48.798;9.070;2023-12-22T10:14:26;8.10;99.90
11264;DHT22;5689;48.798;9.070;2023-12-22T10:16:55;8.10;99.90
11264;DHT22;5689;48.798;9.070;2023-12-22T10:19:24;8.20;99.90
11264;DHT22;5689;48.798;9.070;2023-12-22T10:21:53;8.20;99.90
11264;DHT22;5689;48.798;9.070;2023-12-22T10:24:37;8.20;99.90
11264;DHT22;5689;48.798;9.070;2023-12-22T10:27:06;8.20;99.90
11264;DHT22;5689;48.798;9.070;2023-12-22T10:29:34;8.30;99.90
11264;DHT22;5689;48.798;9.070;2023-12-22T10:32:03;8.30;99.90
11264;DHT22;5689;48.798;9.070;2023-12-22T10:34:33;8.30;99.90
11264;DHT22;5689;48.798;9.070;2023-12-22T10:37:03;8.20;99.90
11264;DHT22;5689;48.798;9.070;2023-12-22T10:39:32;8.20;99.90
11264;DHT22;5689;48.798;9.070;2023-12-22T10:42:01;8.10;99.90
11264;DHT22;5689;48.798;9.070;2023-12-22T10:44:30;8.20;99.90
11264;DHT22;5689;48.798;9.070;2023-12-22T10:46:59;8.20;99.90
11264;DHT22;5689;48.798;9.070;2023-12-22T10:49:28;8.20;99.90
11264;DHT22;5689;48.798;9.070;2023-12-22T10:51:56;8.10;99.90
11264;DHT22;5689;48.798;9.070;2023-12-22T10:54:25;8.10;99.90
11264;DHT22;5689;48.798;9.070;2023-12-22T10:56:57;8.10;99.90
11264;DHT22;5689;48.798;9.070;2023-12-22T10:59:28;8.10;99.90
11264;DHT22;5689;48.798;9.070;2023-12-22T11:01:58;8.10;99.90
11264;DHT22;5689;48.798;9.070;2023-12-22T11:04:30;8.00;99.90
11264;DHT22;5689;48.798;9.070;2023-12-22T11:07:03;8.00;99.90
11264;DHT22;5689;48.798;9.070;2023-12-22T11:09:35;7.90;99.90
11264;DHT22;5689;48.798;9.070;2023-12-22T11:12:05;7.80;99.90
11264;DHT22;5689;48.798;9.070;2023-12-22T11:14:34;7.80;99.90
11264;DHT22;5689;48.798;9.070;2023-12-22T11:17:04;7.70;99.90
11264;DHT22;5689;48.798;9.070;2023-12-22T11:19:34;7.70;99.90
11264;DHT22;5689;48.798;9.070;2023-12-22T11:22:04;7.70;99.90
11264;DHT22;5689;48.798;9.070;2023-12-22T11:24:36;7.60;99.90
11264;DHT22;5689;48.798;9.070;2023-12-22T11:27:06;7.60;99.90
11264;DHT22;5689;48.798;9.070;2023-12-22T11:29:36;7.50;99.90
11264;DHT22;5689;48.798;9.070;2023-12-22T11:32:06;7.50;99.90
11264;DHT22;5689;48.798;9.070;2023-12-22T11:34:36;7.50;99.90
11264;DHT22;5689;48.798;9.070;2023-12-22T11:37:07;7.50;99.90
11264;DHT22;5689;48.798;9.070;2023-12-22T11:39:37;7.50;99.90
11264;DHT22;5689;48.798;9.070;2023-12-22T11:42:07;7.40;99.90
11264;DHT22;5689;48.798;9.070;2023-12-22T11:44:37;7.40;99.90
11264;DHT22;5689;48.798;9.070;2023-12-22T11:47:07;7.40;99.90
11264;DHT22;5689;48.798;9.070;2023-12-22T11:49:36;7.40;99.90
11264;DHT22;5689;48.798;9.070;2023-12-22T11:52:12;7.30;99.90
11264;DHT22;5689;48.798;9.070;2023-12-22T11:54:48;7.30;99.90
11264;DHT22;5689;48.798;9.070;2023-12-22T11:57:31;7.30;99.90
11264;DHT22;5689;48.798;9.070;2023-12-22T12:00:02;7.30;99.90
11264;DHT22;5689;48.798;9.070;2023-12-22T12:02:40;7.20;99.90
11264;DHT22;5689;48.798;9.070;2023-12-22T12:05:09;7.20;99.90
11264;DHT22;5689;48.798;9.070;2023-12-22T12:07:45;7.20;99.90
11264;DHT22;5689;48.798;9.070;2023-12-22T12:10:52;7.30;99.90
11264;DHT22;5689;48.798;9.070;2023-12-22T12:13:24;7.30;99.90
11264;DHT22;5689;48.798;9.070;2023-12-22T12:15:55;7.30;99.90
11264;DHT22;5689;48.798;9.070;2023-12-22T12:18:27;7.30;99.90
11264;DHT22;5689;48.798;9.070;2023-12-22T12:20:56;7.30;99.90
11264;DHT22;5689;48.798;9.070;2023-12-22T12:23:24;7.30;99.90
11264;DHT22;5689;48.798;9.070;2023-12-22T12:25:55;7.40;99.90
11264;DHT22;5689;48.798;9.070;2023-12-22T12:28:28;7.40;99.90
11264;DHT22;5689;48.798;9.070;2023-12-22T12:31:00;7.40;99.90
11264;DHT22;5689;48.798;9.070;2023-12-22T12:33:29;7.40;99.90
11264;DHT22;5689;48.798;9.070;2023-12-22T12:35:58;7.40;99.90
11264;DHT22;5689;48.798;9.070;2023-12-22T12:38:36;7.40;99.90
11264;DHT22;5689;48.798;9.070;2023-12-22T12:41:09;7.40;99.90
11264;DHT22;5689;48.798;9.070;2023-12-22T12:43:41;7.40;99.90
11264;DHT22;5689;48.798;9.070;2023-12-22T12:46:11;7.40;99.90
11264;DHT22;5689;48.798;9.070;2023-12-22T12:48:39;7.50;99.90
11264;DHT22;5689;48.798;9.070;2023-12-22T12:51:08;7.50;99.90
11264;DHT22;5689;48.798;9.070;2023-12-22T12:53:36;7.50;99.90
11264;DHT22;5689;48.798;9.070;2023-12-22T12:56:06;7.60;99.90
11264;DHT22;5689;48.798;9.070;2023-12-22T12:58:35;7.70;99.90
11264;DHT22;5689;48.798;9.070;2023-12-22T13:01:07;7.70;99.90
11264;DHT22;5689;48.798;9.070;2023-12-22T13:03:53;7.70;99.90
11264;DHT22;5689;48.798;9.070;2023-12-22T13:06:22;7.80;99.90
11264;DHT22;5689;48.798;9.070;2023-12-22T13:08:50;7.80;99.90
11264;DHT22;5689;48.798;9.070;2023-12-22T13:11:22;7.90;99.90
11264;DHT22;5689;48.798;9.070;2023-12-22T13:13:51;8.10;99.90
11264;DHT22;5689;48.798;9.070;2023-12-22T13:16:20;8.30;99.90
11264;DHT22;5689;48.798;9.070;2023-12-22T13:18:48;8.40;99.90
11264;DHT22;5689;48.798;9.070;2023-12-22T13:21:17;8.50;99.90
11264;DHT22;5689;48.798;9.070;2023-12-22T13:23:45;8.60;99.90
11264;DHT22;5689;48.798;9.070;2023-12-22T13:26:21;8.60;99.90
11264;DHT22;5689;48.798;9.070;2023-12-22T13:28:49;8.70;99.90
11264;DHT22;5689;48.798;9.070;2023-12-22T13:31:17;8.70;99.90
11264;DHT22;5689;48.798;9.070;2023-12-22T13:33:46;8.80;99.90
11264;DHT22;5689;48.798;9.070;2023-12-22T13:36:14;8.90;99.90
11264;DHT22;5689;48.798;9.070;2023-12-22T13:38:46;8.90;99.90
11264;DHT22;5689;48.798;9.070;2023-12-22T13:41:15;8.90;99.90
11264;DHT22;5689;48.798;9.070;2023-12-22T13:43:45;9.00;99.90
11264;DHT22;5689;48.798;9.070;2023-12-22T13:46:14;8.90;99.90
11264;DHT22;5689;48.798;9.070;2023-12-22T13:48:42;9.00;99.90
11264;DHT22;5689;48.798;9.070;2023-12-22T13:51:11;9.10;99.90
11264;DHT22;5689;48.798;9.070;2023-12-22T13:53:50;9.10;99.90
11264;DHT22;5689;48.798;9.070;2023-12-22T13:56:18;9.10;99.90
11264;DHT22;5689;48.798;9.070;2023-12-22T13:58:47;9.10;99.90
11264;DHT22;5689;48.798;9.070;2023-12-22T14:01:16;9.10;99.90
11264;DHT22;5689;48.798;9.070;2023-12-22T14:03:44;9.20;99.90
11264;DHT22;5689;48.798;9.070;2023-12-22T14:06:13;9.20;99.90
11264;DHT22;5689;48.798;9.070;2023-12-22T14:08:40;9.20;99.90
11264;DHT22;5689;48.798;9.070;2023-12-22T14:11:08;9.20;99.90
11264;DHT22;5689;48.798;9.070;2023-12-22T14:13:36;9.20;99.90
11264;DHT22;5689;48.798;9.070;2023-12-22T14:16:09;9.20;99.90
11264;DHT22;5689;48.798;9.070;2023-12-22T14:18:37;9.20;99.90
11264;DHT22;5689;48.798;9.070;2023-12-22T14:21:06;9.30;99.90
11264;DHT22;5689;48.798;9.070;2023-12-22T14:23:34;9.40;99.90
11264;DHT22;5689;48.798;9.070;2023-12-22T14:26:03;9.30;99.90
11264;DHT22;5689;48.798;9.070;2023-12-22T14:28:32;9.40;99.90
11264;DHT22;5689;48.798;9.070;2023-12-22T14:31:00;9.30;99.90
11264;DHT22;5689;48.798;9.070;2023-12-22T14:33:30;9.30;99.90
11264;DHT22;5689;48.798;9.070;2023-12-22T14:35:58;9.40;99.90
11264;DHT22;5689;48.798;9.070;2023-12-22T14:38:26;9.40;99.90
11264;DHT22;5689;48.798;9.070;2023-12-22T14:40:54;9.30;99.90
11264;DHT22;5689;48.798;9.070;2023-12-22T14:43:23;9.40;99.90
11264;DHT22;5689;48.798;9.070;2023-12-22T14:45:51;9.50;99.90
11264;DHT22;5689;48.798;9.070;2023-12-22T14:48:18;9.50;99.90
11264;DHT22;5689;48.798;9.070;2023-12-22T14:50:47;9.50;99.90
11264;DHT22;5689;48.798;9.070;2023-12-22T14:53:16;9.50;99.90
11264;DHT22;5689;48.798;9.070;2023-12-22T14:55:44;9.50;99.90
11264;DHT22;5689;48.798;9.070;2023-12-22T14:58:12;9.40;99.90
11264;DHT22;5689;48.798;9.070;2023-12-22T15:00:41;9.50;99.90
11264;DHT22;5689;48.798;9.070;2023-12-22T15:03:10;9.40;99.90
11264;DHT22;5689;48.798;9.070;2023-12-22T15:05:38;9.30;99.90
11264;DHT22;5689;48.798;9.070;2023-12-22T15:08:08;9.40;99.90
11264;DHT22;5689;48.798;9.070;2023-12-22T15:10:36;9.40;99.90
11264;DHT22;5689;48.798;9.070;2023-12-22T15:13:04;9.30;99.90
11264;DHT22;5689;48.798;9.070;2023-12-22T15:15:32;9.40;99.90
11264;DHT22;5689;48.798;9.070;2023-12-22T15:18:00;9.40;99.90
11264;DHT22;5689;48.798;9.070;2023-12-22T15:20:28;9.40;99.90
11264;DHT22;5689;48.798;9.070;2023-12-22T15:22:57;9.40;99.90
11264;DHT22;5689;48.798;9.070;2023-12-22T15:25:26;9.40;99.90
11264;DHT22;5689;48.798;9.070;2023-12-22T15:27:54;9.40;99.90
11264;DHT22;5689;48.798;9.070;2023-12-22T15:30:23;9.50;99.90
11264;DHT22;5689;48.798;9.070;2023-12-22T15:32:52;9.50;99.90
11264;DHT22;5689;48.798;9.070;2023-12-22T15:35:20;9.40;99.90
11264;DHT22;5689;48.798;9.070;2023-12-22T15:37:48;9.40;99.90
11264;DHT22;5689;48.798;9.070;2023-12-22T15:40:18;9.40;99.90
11264;DHT22;5689;48.798;9.070;2023-12-22T15:42:47;9.50;99.90
11264;DHT22;5689;48.798;9.070;2023-12-22T15:45:16;9.50;99.90
11264;DHT22;5689;48.798;9.070;2023-12-22T15:47:44;9.50;99.90
11264;DHT22;5689;48.798;9.070;2023-12-22T15:50:12;9.50;99.90
11264;DHT22;5689;48.798;9.070;2023-12-22T15:52:41;9.50;99.90
11264;DHT22;5689;48.798;9.070;2023-12-22T15:55:09;9.50;99.90
11264;DHT22;5689;48.798;9.070;2023-12-22T15:57:39;9.50;99.90
11264;DHT22;5689;48.798;9.070;2023-12-22T16:00:10;9.50;99.90
11264;DHT22;5689;48.798;9.070;2023-12-22T16:02:39;9.60;99.90
11264;DHT22;5689;48.798;9.070;2023-12-22T16:05:07;9.50;99.90
11264;DHT22;5689;48.798;9.070;2023-12-22T16:07:38;9.50;99.90
11264;DHT22;5689;48.798;9.070;2023-12-22T16:10:07;9.60;99.90
11264;DHT22;5689;48.798;9.070;2023-12-22T16:12:38;9.60;99.90
11264;DHT22;5689;48.798;9.070;2023-12-22T16:15:09;9.60;99.90